createdAt,value
2019-04-23T00:02:26.544Z,4.42
2019-04-23T00:04:55.552Z,4.58
2019-04-23T00:07:40.077Z,4.30
2019-04-23T00:09:56.877Z,4.65
2019-04-23T00:12:40.496Z,4.65
2019-04-23T00:15:04.851Z,4.20
2019-04-23T00:17:37.363Z,5.10
2019-04-23T00:20:06.461Z,4.58
2019-04-23T00:22:36.983Z,4.70
2019-04-23T00:25:47.092Z,4.75
2019-04-23T00:27:59.441Z,4.85
2019-04-23T00:30:36.264Z,4.97
2019-04-23T00:33:01.607Z,4.90
2019-04-23T00:35:25.518Z,4.92
2019-04-23T00:38:05.538Z,5.17
2019-04-23T00:40:37.518Z,4.90
2019-04-23T00:43:01.954Z,5.10
2019-04-23T00:48:09.264Z,5.15
2019-04-23T00:50:38.544Z,5.00
2019-04-23T00:53:04.576Z,5.08
2019-04-23T00:55:35.706Z,5.40
2019-04-23T00:58:06.579Z,5.00
2019-04-23T01:00:42.431Z,4.90
2019-04-23T01:05:35.311Z,4.97
2019-04-23T01:08:13.011Z,5.33
2019-04-23T01:13:39.361Z,5.58
2019-04-23T01:16:08.518Z,5.35
2019-04-23T01:18:58.103Z,5.53
2019-04-23T01:21:22.380Z,5.55
2019-04-23T01:24:00.306Z,5.17
2019-04-23T01:26:50.314Z,5.85
2019-04-23T01:29:33.355Z,5.78
2019-04-23T01:31:55.115Z,5.37
2019-04-23T01:34:24.444Z,5.20
2019-04-23T01:37:01.159Z,5.40
2019-04-23T01:39:23.142Z,5.80
2019-04-23T01:42:07.105Z,5.62
2019-04-23T01:44:34.187Z,5.70
2019-04-23T01:46:56.215Z,6.20
2019-04-23T01:49:31.244Z,5.90
2019-04-23T01:54:28.850Z,6.15
2019-04-23T01:56:59.406Z,5.80
2019-04-23T01:59:26.240Z,5.65
2019-04-23T02:01:58.476Z,6.00
2019-04-23T02:04:28.430Z,6.30
2019-04-23T02:06:59.291Z,6.33
2019-04-23T02:09:37.280Z,5.50
2019-04-23T02:12:02.963Z,5.60
2019-04-23T02:14:34.594Z,5.80
2019-04-23T02:17:00.219Z,5.80
2019-04-23T02:19:40.112Z,5.58
2019-04-23T02:22:08.017Z,5.47
2019-04-23T02:27:17.251Z,5.58
2019-04-23T02:29:54.105Z,5.35
2019-04-23T02:32:23.769Z,4.83
2019-04-23T02:34:52.404Z,5.00
2019-04-23T02:37:24.461Z,4.90
2019-04-23T02:40:09.066Z,5.08
2019-04-23T02:44:51.259Z,5.40
2019-04-23T02:47:31.924Z,5.30
2019-04-23T02:49:55.395Z,5.60
2019-04-23T02:54:51.018Z,5.67
2019-04-23T02:57:12.821Z,5.55
2019-04-23T03:00:07.945Z,5.67
2019-04-23T03:04:50.064Z,5.15
2019-04-23T03:07:30.668Z,5.30
2019-04-23T03:12:25.040Z,5.40
2019-04-23T03:15:11.009Z,5.55
2019-04-23T03:17:35.788Z,5.40
2019-04-23T03:20:21.492Z,5.90
2019-04-23T03:22:56.119Z,5.30
2019-04-23T03:25:38.158Z,5.25
2019-04-23T03:28:07.239Z,5.75
2019-04-23T03:32:31.139Z,5.87
2019-04-23T03:38:35.172Z,6.30
2019-04-23T03:40:46.487Z,5.47
2019-04-23T03:43:28.809Z,5.42
2019-04-23T03:46:04.344Z,5.87
2019-04-23T03:48:27.015Z,5.60
2019-04-23T03:53:24.388Z,5.78
2019-04-23T03:55:56.196Z,6.08
2019-04-23T04:03:42.240Z,5.75
2019-04-23T04:05:56.609Z,5.90
2019-04-23T04:11:11.303Z,5.60
2019-04-23T04:23:33.316Z,6.67
2019-04-23T04:26:00.872Z,6.60
2019-04-23T04:28:28.753Z,6.50
2019-04-23T04:33:36.505Z,6.58
2019-04-23T04:36:07.859Z,6.60
2019-04-23T04:43:31.613Z,6.62
2019-04-23T04:48:35.475Z,7.80
2019-04-23T04:56:07.628Z,6.97
2019-04-23T04:58:32.277Z,7.08
2019-04-23T05:03:28.479Z,7.20
2019-04-23T05:08:37.294Z,7.40
2019-04-23T05:11:21.624Z,7.40
2019-04-23T05:13:39.211Z,6.90
2019-04-23T05:15:58.091Z,7.00
2019-04-23T05:23:54.347Z,7.28
2019-04-23T05:26:13.568Z,7.08
2019-04-23T05:28:51.652Z,7.45
2019-04-23T05:31:17.187Z,6.92
2019-04-23T05:33:41.521Z,7.15
2019-04-23T05:38:50.724Z,7.10
2019-04-23T05:41:16.983Z,6.92
2019-04-23T05:43:46.708Z,7.20
2019-04-23T05:46:25.060Z,6.92
2019-04-23T05:48:49.178Z,6.87
2019-04-23T05:53:45.082Z,7.08
2019-04-23T05:56:13.184Z,6.97
2019-04-23T05:58:43.701Z,7.50
2019-04-23T06:01:41.700Z,7.50
2019-04-23T06:03:56.750Z,7.00
2019-04-23T06:06:29.458Z,7.40
2019-04-23T06:11:28.487Z,7.50
2019-04-23T06:14:05.313Z,6.95
2019-04-23T06:16:33.009Z,7.20
2019-04-23T06:19:02.761Z,6.62
2019-04-23T06:21:33.993Z,7.45
2019-04-23T06:23:58.521Z,7.33
2019-04-23T06:28:59.482Z,7.85
2019-04-23T06:31:34.236Z,7.97
2019-04-23T06:34:02.714Z,7.50
2019-04-23T06:39:08.413Z,7.10
2019-04-23T06:41:31.234Z,7.90
2019-04-23T06:44:14.352Z,7.53
2019-04-23T06:46:46.050Z,7.70
2019-04-23T06:49:11.668Z,7.30
2019-04-23T06:51:46.582Z,7.58
2019-04-23T06:54:12.308Z,7.78
2019-04-23T06:59:12.398Z,7.97
2019-04-23T07:01:45.890Z,7.97
2019-04-23T07:04:15.065Z,8.48
2019-04-23T07:06:46.835Z,7.95
2019-04-23T07:14:02.438Z,8.25
2019-04-23T07:16:45.125Z,8.15
2019-04-23T07:19:16.560Z,8.38
2019-04-23T07:21:42.435Z,8.38
2019-04-23T07:24:15.128Z,7.78
2019-04-23T07:29:23.901Z,8.98
2019-04-23T07:31:52.186Z,9.08
2019-04-23T07:34:14.065Z,8.53
2019-04-23T07:39:23.322Z,9.08
2019-04-23T07:47:25.118Z,8.13
2019-04-23T07:49:56.550Z,8.20
2019-04-23T07:52:28.972Z,9.38
2019-04-23T07:54:52.589Z,9.68
2019-04-23T07:59:50.104Z,8.30
2019-04-23T08:02:24.101Z,8.28
2019-04-23T08:05:07.611Z,7.80
2019-04-23T08:07:19.946Z,8.58
2019-04-23T08:10:02.055Z,8.33
2019-04-23T08:14:53.461Z,8.58
2019-04-23T08:17:19.067Z,8.23
2019-04-23T08:19:56.425Z,7.80
2019-04-23T08:22:37.253Z,8.40
2019-04-23T08:27:22.391Z,8.78
2019-04-23T08:30:03.331Z,7.92
2019-04-23T08:32:23.590Z,8.75
2019-04-23T08:35:14.074Z,7.92
2019-04-23T08:37:49.702Z,8.45
2019-04-23T08:40:01.827Z,9.38
2019-04-23T08:50:43.065Z,8.43
2019-04-23T08:53:26.361Z,8.90
2019-04-23T08:55:44.195Z,8.55
2019-04-23T08:58:14.359Z,8.43
2019-04-23T09:01:00.629Z,8.30
2019-04-23T09:03:20.000Z,7.70
2019-04-23T09:08:32.812Z,8.00
2019-04-23T09:10:56.738Z,7.95
2019-04-23T09:15:49.766Z,8.30
2019-04-23T09:18:20.961Z,8.30
2019-04-23T09:20:49.672Z,8.00
2019-04-23T09:23:33.043Z,6.90
2019-04-23T09:25:54.109Z,7.37
2019-04-23T09:30:57.417Z,7.80
2019-04-23T09:33:31.229Z,6.87
2019-04-23T09:36:13.298Z,7.42
2019-04-23T09:38:53.657Z,7.60
2019-04-23T09:41:29.916Z,6.75
2019-04-23T09:44:14.876Z,6.83
2019-04-23T09:46:55.777Z,6.47
2019-04-23T09:51:51.320Z,6.78
2019-04-23T09:54:43.069Z,6.35
2019-04-23T09:56:52.075Z,7.50
2019-04-23T09:59:34.224Z,7.67
2019-04-23T10:01:44.943Z,6.30
2019-04-23T10:04:07.477Z,6.75
2019-04-23T10:06:32.108Z,6.47
2019-04-23T10:09:00.141Z,6.47
2019-04-23T10:11:28.399Z,7.25
2019-04-23T10:13:58.594Z,8.23
2019-04-23T10:16:30.347Z,7.20
2019-04-23T10:18:57.569Z,7.08
2019-04-23T10:21:26.304Z,6.62
2019-04-23T10:23:55.046Z,6.10
2019-04-23T10:26:24.033Z,6.08
2019-04-23T10:28:55.975Z,5.62
2019-04-23T10:31:25.131Z,6.40
2019-04-23T10:33:53.905Z,6.40
2019-04-23T10:36:25.846Z,5.90
2019-04-23T10:39:00.642Z,6.08
2019-04-23T10:41:24.248Z,6.05
2019-04-23T10:43:56.690Z,6.35
2019-04-23T10:47:06.717Z,6.10
2019-04-23T10:49:52.231Z,5.83
2019-04-23T10:52:16.872Z,5.53
2019-04-23T10:57:03.815Z,5.67
2019-04-23T10:59:40.442Z,5.30
2019-04-23T11:02:29.742Z,5.17
2019-04-23T11:07:27.187Z,5.08
2019-04-23T11:12:32.287Z,5.87
2019-04-23T11:14:58.249Z,5.80
2019-04-23T11:24:58.887Z,4.90
2019-04-23T11:27:32.933Z,5.30
2019-04-23T11:30:00.131Z,5.30
2019-04-23T11:37:36.324Z,5.15
2019-04-23T11:42:28.093Z,4.70
2019-04-23T11:44:56.670Z,5.28
2019-04-23T11:49:58.220Z,5.72
2019-04-23T12:05:41.390Z,5.12
2019-04-23T12:08:28.239Z,4.58
2019-04-23T12:11:00.271Z,4.58
2019-04-23T12:16:13.238Z,4.80
2019-04-23T12:18:28.674Z,4.62
2019-04-23T12:21:12.856Z,4.37
2019-04-23T12:23:50.508Z,4.65
2019-04-23T12:26:23.268Z,5.03
2019-04-23T12:28:44.148Z,4.67
2019-04-23T12:31:09.636Z,4.40
2019-04-23T12:33:44.047Z,4.50
2019-04-23T12:36:37.253Z,4.28
2019-04-23T12:39:04.353Z,4.45
2019-04-23T12:41:36.256Z,4.35
2019-04-23T12:44:03.493Z,5.22
2019-04-23T12:46:41.586Z,4.80
2019-04-23T12:49:10.683Z,4.20
2019-04-23T12:52:40.627Z,4.30
2019-04-23T12:54:06.963Z,5.12
2019-04-23T12:56:46.453Z,4.78
2019-04-23T12:58:56.758Z,4.70
2019-04-23T13:01:47.111Z,5.30
2019-04-23T13:04:01.376Z,4.70
2019-04-23T13:06:28.314Z,4.53
2019-04-23T13:09:18.865Z,4.70
2019-04-23T13:11:34.550Z,4.50
2019-04-23T13:14:08.569Z,4.30
2019-04-23T13:19:14.311Z,4.37
2019-04-23T13:24:26.017Z,4.37
2019-04-23T13:26:54.907Z,3.47
2019-04-23T13:29:37.936Z,4.00
2019-04-23T13:31:58.236Z,3.55
2019-04-23T13:34:38.051Z,4.37
2019-04-23T13:37:05.446Z,3.95
2019-04-23T13:39:38.892Z,4.10
2019-04-23T13:42:06.290Z,3.87
2019-04-23T13:44:35.447Z,3.17
2019-04-23T13:47:00.110Z,3.70
2019-04-23T13:49:37.754Z,4.12
2019-04-23T13:52:05.624Z,3.70
2019-04-23T13:54:59.931Z,3.25
2019-04-23T13:59:39.754Z,3.87
2019-04-23T14:02:09.077Z,3.70
2019-04-23T14:05:02.122Z,4.33
2019-04-23T14:07:32.591Z,3.67
2019-04-23T14:12:31.912Z,4.67
2019-04-23T14:15:04.900Z,3.80
2019-04-23T14:19:59.894Z,4.17
2019-04-23T14:27:44.556Z,3.60
2019-04-23T14:30:05.520Z,4.17
2019-04-23T14:32:29.401Z,4.00
2019-04-23T14:37:45.678Z,3.65
2019-04-23T14:40:22.224Z,4.72
2019-04-23T14:42:59.973Z,4.40
2019-04-23T14:47:59.064Z,4.20
2019-04-23T14:53:06.388Z,4.40
2019-04-23T14:58:10.554Z,3.80
2019-04-23T15:00:33.816Z,3.67
2019-04-23T15:05:36.057Z,3.40
2019-04-23T15:08:12.081Z,4.17
2019-04-23T15:13:10.842Z,3.70
2019-04-23T15:15:40.487Z,3.98
2019-04-23T15:18:21.289Z,3.62
2019-04-23T15:21:08.354Z,3.80
2019-04-23T15:23:53.266Z,3.70
2019-04-23T15:26:47.800Z,3.58
2019-04-23T15:28:08.973Z,3.67
2019-04-23T15:31:02.401Z,3.98
2019-04-23T15:33:34.289Z,3.33
2019-04-23T15:36:16.096Z,3.47
2019-04-23T15:38:43.597Z,3.20
2019-04-23T15:41:02.597Z,3.75
2019-04-23T15:43:30.787Z,3.10
2019-04-23T15:46:02.873Z,2.62
2019-04-23T15:48:33.623Z,2.45
2019-04-23T15:51:04.370Z,2.58
2019-04-23T15:53:24.571Z,2.27
2019-04-23T15:56:13.896Z,2.30
2019-04-23T16:03:19.748Z,1.42
2019-04-23T16:05:46.806Z,1.30
2019-04-23T16:08:51.402Z,1.20
2019-04-23T16:11:25.950Z,1.27
2019-04-23T16:14:08.243Z,1.30
2019-04-23T16:16:17.705Z,1.92
2019-04-23T16:19:09.583Z,1.25
2019-04-23T16:21:48.342Z,1.20
2019-04-23T16:24:13.514Z,1.40
2019-04-23T16:31:54.632Z,1.65
2019-04-23T16:34:19.183Z,1.40
2019-04-23T16:36:43.824Z,1.20
2019-04-23T16:44:20.275Z,1.30
2019-04-23T16:46:52.741Z,1.30
2019-04-23T16:49:17.886Z,1.20
2019-04-23T16:54:25.798Z,1.20
2019-04-23T16:59:32.835Z,1.07
2019-04-23T17:01:50.415Z,1.12
2019-04-23T17:06:54.768Z,1.35
2019-04-23T17:09:21.533Z,1.80
2019-04-23T17:11:59.119Z,1.20
2019-04-23T17:16:41.687Z,1.17
2019-04-23T17:19:26.233Z,0.82
2019-04-23T17:21:57.298Z,1.07
2019-04-23T17:26:54.333Z,0.95
2019-04-23T17:29:41.328Z,0.90
2019-04-23T17:31:44.831Z,1.10
2019-04-23T17:34:30.669Z,0.95
2019-04-23T17:37:05.309Z,0.80
2019-04-23T17:39:52.759Z,1.00
2019-04-23T17:42:19.622Z,1.20
2019-04-23T17:47:22.113Z,0.90
2019-04-23T17:49:59.057Z,0.90
2019-04-23T17:52:28.031Z,1.10
2019-04-23T17:54:54.852Z,0.93
2019-04-23T17:57:26.430Z,0.90
2019-04-23T18:00:09.957Z,1.12
2019-04-23T18:07:41.085Z,2.80
2019-04-23T18:10:12.789Z,1.37
2019-04-23T18:12:41.221Z,1.00
2019-04-23T18:15:02.597Z,1.02
2019-04-23T18:17:35.011Z,1.20
2019-04-23T18:20:16.673Z,1.05
2019-04-23T18:25:25.756Z,0.90
2019-04-23T18:30:32.080Z,1.20
2019-04-23T18:38:14.732Z,1.10
2019-04-23T18:40:58.200Z,1.15
2019-04-23T18:43:23.102Z,1.22
2019-04-23T18:45:53.848Z,1.50
2019-04-23T18:48:39.198Z,1.22
2019-04-23T18:51:00.287Z,1.22
2019-04-23T18:53:45.701Z,1.80
2019-04-23T18:56:06.880Z,1.20
2019-04-23T18:58:47.177Z,1.30
2019-04-23T19:01:05.597Z,1.30
2019-04-23T19:03:50.934Z,1.50
2019-04-23T19:14:25.678Z,3.27
2019-04-23T19:17:08.882Z,3.33
2019-04-23T19:22:14.404Z,2.90
2019-04-23T19:24:26.364Z,3.35
2019-04-23T19:29:36.998Z,3.00
2019-04-23T19:31:54.025Z,3.30
2019-04-23T19:44:31.366Z,3.40
2019-04-23T19:47:03.285Z,3.35
2019-04-23T19:54:34.368Z,3.25
2019-04-23T19:57:01.914Z,3.05
2019-04-23T19:59:39.552Z,3.08
2019-04-23T20:02:01.308Z,2.80
2019-04-23T20:04:39.406Z,3.25
2019-04-23T20:07:15.922Z,3.60
2019-04-23T20:12:00.987Z,2.92
2019-04-23T20:14:32.131Z,3.00
2019-04-23T20:19:40.690Z,3.15
2019-04-23T20:22:11.123Z,2.92
2019-04-23T20:24:37.249Z,3.15
2019-04-23T20:27:15.524Z,2.80
2019-04-23T20:29:50.836Z,2.90
2019-04-23T20:33:06.489Z,3.05
2019-04-23T20:37:12.603Z,3.30
2019-04-23T20:39:50.431Z,2.92
2019-04-23T20:44:53.534Z,2.80
2019-04-23T20:47:15.575Z,2.65
2019-04-23T20:52:08.841Z,2.92
2019-04-23T20:57:43.795Z,2.87
2019-04-23T21:10:51.009Z,2.70
2019-04-23T21:15:30.937Z,3.00
2019-04-23T21:17:58.062Z,3.37
2019-04-23T21:30:55.843Z,3.00
2019-04-23T21:33:11.597Z,3.22
2019-04-23T21:38:39.510Z,3.37
2019-04-23T21:41:08.692Z,3.77
2019-04-23T21:43:47.433Z,3.67
2019-04-23T21:48:53.082Z,3.42
2019-04-23T21:51:15.801Z,4.37
2019-04-23T21:53:42.762Z,3.72
2019-04-23T21:56:10.882Z,3.27
2019-04-23T21:58:49.573Z,3.65
2019-04-23T22:01:32.128Z,2.90
2019-04-23T22:04:08.595Z,2.95
2019-04-23T22:06:28.300Z,3.20
2019-04-23T22:09:00.875Z,2.75
2019-04-23T22:14:06.011Z,2.87
2019-04-23T22:16:36.971Z,2.72
2019-04-23T22:21:33.332Z,2.70
2019-04-23T22:29:17.699Z,2.92
2019-04-23T22:31:37.829Z,2.58
2019-04-23T22:36:42.855Z,2.27
2019-04-23T22:39:03.061Z,2.47
2019-04-23T22:46:48.396Z,2.50
2019-04-23T22:56:48.709Z,2.70
2019-04-23T23:01:59.185Z,2.90
2019-04-23T23:04:15.159Z,2.87
2019-04-23T23:11:49.790Z,3.50
2019-04-23T23:16:44.984Z,3.25
2019-04-23T23:19:22.212Z,3.02
2019-04-23T23:21:59.360Z,3.20
2019-04-23T23:24:15.413Z,2.60
2019-04-23T23:26:50.023Z,3.83
2019-04-23T23:29:16.050Z,3.27
2019-04-23T23:31:51.880Z,3.72
2019-04-23T23:34:15.488Z,3.30
2019-04-23T23:36:54.833Z,3.22
2019-04-23T23:39:22.795Z,3.60
2019-04-23T23:41:52.481Z,3.60
2019-04-23T23:46:56.291Z,3.50
2019-04-23T23:49:20.347Z,3.65
2019-04-23T23:51:49.340Z,3.83
2019-04-23T23:54:13.609Z,3.17
2019-04-23T23:57:00.778Z,3.50
